createdAt,value
2022-12-14T00:01:25.468Z,19.15
2022-12-14T00:03:53.370Z,19.70
2022-12-14T00:06:25.476Z,16.35
2022-12-14T00:08:54.250Z,18.90
2022-12-14T00:11:25.304Z,20.80
2022-12-14T00:14:00.030Z,22.75
2022-12-14T00:16:29.257Z,18.90
2022-12-14T00:18:57.620Z,21.75
2022-12-14T00:21:25.713Z,16.35
2022-12-14T00:23:53.739Z,19.95
2022-12-14T00:26:22.793Z,20.58
2022-12-14T00:28:52.108Z,17.95
2022-12-14T00:31:20.364Z,18.15
2022-12-14T00:33:48.129Z,21.73
2022-12-14T00:36:15.867Z,20.95
2022-12-14T00:38:43.553Z,20.98
2022-12-14T00:41:11.642Z,19.30
2022-12-14T00:43:39.195Z,19.08
2022-12-14T00:46:06.900Z,20.00
2022-12-14T00:48:34.524Z,20.27
2022-12-14T00:51:02.073Z,21.95
2022-12-14T00:53:30.377Z,18.48
2022-12-14T00:55:57.927Z,18.98
2022-12-14T00:58:27.195Z,20.80
2022-12-14T01:01:05.318Z,19.40
2022-12-14T01:03:33.571Z,21.95
2022-12-14T01:06:01.441Z,18.77
2022-12-14T01:08:35.529Z,17.55
2022-12-14T01:11:04.783Z,20.45
2022-12-14T01:13:32.367Z,19.88
2022-12-14T01:16:06.465Z,20.50
2022-12-14T01:18:35.113Z,19.98
2022-12-14T01:21:14.920Z,20.05
2022-12-14T01:23:43.861Z,18.73
2022-12-14T01:26:12.082Z,19.85
2022-12-14T01:28:39.688Z,19.88
2022-12-14T01:31:08.628Z,19.08
2022-12-14T01:33:39.462Z,20.02
2022-12-14T01:36:08.424Z,22.47
2022-12-14T01:38:36.086Z,21.30
2022-12-14T01:41:04.323Z,24.15
2022-12-14T01:43:51.520Z,22.30
2022-12-14T01:46:22.674Z,19.90
2022-12-14T01:48:52.174Z,21.55
2022-12-14T01:51:19.920Z,20.48
2022-12-14T01:53:50.175Z,21.50
2022-12-14T01:56:18.541Z,20.02
2022-12-14T01:58:46.478Z,18.35
2022-12-14T02:01:14.913Z,22.73
2022-12-14T02:03:44.705Z,19.83
2022-12-14T02:06:15.252Z,20.35
2022-12-14T02:08:44.456Z,20.02
2022-12-14T02:11:12.740Z,21.90
2022-12-14T02:13:42.318Z,20.85
2022-12-14T02:16:10.499Z,19.85
2022-12-14T02:18:41.073Z,20.77
2022-12-14T02:21:11.336Z,20.05
2022-12-14T02:23:54.720Z,20.38
2022-12-14T02:26:25.208Z,20.88
2022-12-14T02:29:07.926Z,19.52
2022-12-14T02:31:48.893Z,19.55
2022-12-14T02:34:20.103Z,19.75
2022-12-14T02:37:02.943Z,18.85
2022-12-14T02:39:32.125Z,19.52
2022-12-14T02:42:06.596Z,20.27
2022-12-14T02:44:40.666Z,21.25
2022-12-14T02:47:27.440Z,19.25
2022-12-14T02:50:04.954Z,20.33
2022-12-14T02:52:47.949Z,19.65
2022-12-14T02:55:19.904Z,21.20
2022-12-14T02:58:01.691Z,22.20
2022-12-14T03:00:32.435Z,18.35
2022-12-14T03:03:01.052Z,20.93
2022-12-14T03:05:29.137Z,23.40
2022-12-14T03:08:28.867Z,23.40
2022-12-14T03:11:01.971Z,19.88
2022-12-14T03:13:38.065Z,23.20
2022-12-14T03:16:10.792Z,20.10
2022-12-14T03:18:43.945Z,20.25
2022-12-14T03:21:14.433Z,19.63
2022-12-14T03:23:46.783Z,23.48
2022-12-14T03:26:42.889Z,20.00
2022-12-14T03:29:19.392Z,19.75
2022-12-14T03:31:53.428Z,21.02
2022-12-14T03:34:24.331Z,21.83
2022-12-14T03:37:16.101Z,21.55
2022-12-14T03:39:47.141Z,21.42
2022-12-14T03:42:18.037Z,20.50
2022-12-14T03:44:49.271Z,20.90
2022-12-14T03:50:06.734Z,21.58
2022-12-14T03:52:38.642Z,22.35
2022-12-14T03:55:15.503Z,22.23
2022-12-14T03:57:49.869Z,20.55
2022-12-14T04:00:19.739Z,19.98
2022-12-14T04:02:54.092Z,20.15
2022-12-14T04:05:47.067Z,24.33
2022-12-14T04:08:29.154Z,22.00
2022-12-14T04:11:17.437Z,18.08
2022-12-14T04:14:16.668Z,22.90
2022-12-14T04:17:04.760Z,22.17
2022-12-14T04:19:39.052Z,22.08
2022-12-14T04:22:14.780Z,20.15
2022-12-14T04:25:21.539Z,21.92
2022-12-14T04:27:55.814Z,20.58
2022-12-14T04:30:26.497Z,21.40
2022-12-14T04:33:27.393Z,22.17
2022-12-14T04:35:57.177Z,23.73
2022-12-14T04:38:32.645Z,21.23
2022-12-14T04:41:07.244Z,23.55
2022-12-14T04:43:37.699Z,19.75
2022-12-14T04:46:10.838Z,20.13
2022-12-14T04:48:41.516Z,22.35
2022-12-14T04:51:28.360Z,22.40
2022-12-14T04:53:59.911Z,19.27
2022-12-14T04:56:31.281Z,21.75
2022-12-14T04:59:02.246Z,21.10
2022-12-14T05:01:56.808Z,23.85
2022-12-14T05:04:33.799Z,20.65
2022-12-14T05:07:28.100Z,22.13
2022-12-14T05:09:58.736Z,21.02
2022-12-14T05:12:35.880Z,20.92
2022-12-14T05:15:09.409Z,21.90
2022-12-14T05:17:44.445Z,22.10
2022-12-14T05:20:17.904Z,22.35
2022-12-14T05:22:48.366Z,23.55
2022-12-14T05:25:16.668Z,21.08
2022-12-14T05:27:47.124Z,22.67
2022-12-14T05:30:17.671Z,23.10
2022-12-14T05:32:47.749Z,25.50
2022-12-14T05:35:15.842Z,22.27
2022-12-14T05:37:46.321Z,32.00
2022-12-14T05:40:17.256Z,23.20
2022-12-14T05:42:55.705Z,22.83
2022-12-14T05:45:26.307Z,24.85
2022-12-14T05:47:59.736Z,22.73
2022-12-14T05:50:27.727Z,24.10
2022-12-14T05:52:55.851Z,21.80
2022-12-14T05:55:23.909Z,21.38
2022-12-14T05:57:52.165Z,22.40
2022-12-14T06:00:22.600Z,24.75
2022-12-14T06:02:51.444Z,20.45
2022-12-14T06:05:29.106Z,23.30
2022-12-14T06:07:59.826Z,21.05
2022-12-14T06:10:28.106Z,21.88
2022-12-14T06:12:57.775Z,24.60
2022-12-14T06:15:33.630Z,23.70
2022-12-14T06:18:02.038Z,21.67
2022-12-14T06:20:32.293Z,23.77
2022-12-14T06:23:00.694Z,24.65
2022-12-14T06:25:28.752Z,23.98
2022-12-14T06:27:59.008Z,21.42
2022-12-14T06:30:32.178Z,20.67
2022-12-14T06:33:02.323Z,21.75
2022-12-14T06:35:32.460Z,22.42
2022-12-14T06:38:00.444Z,26.80
2022-12-14T06:40:28.397Z,24.38
2022-12-14T06:43:00.607Z,22.25
2022-12-14T06:45:29.370Z,22.42
2022-12-14T06:48:02.697Z,24.85
2022-12-14T06:50:30.973Z,24.10
2022-12-14T06:52:59.176Z,24.20
2022-12-14T06:55:27.470Z,23.50
2022-12-14T06:57:55.804Z,22.33
2022-12-14T07:00:27.380Z,23.55
2022-12-14T07:05:23.344Z,24.73
2022-12-14T07:07:51.110Z,28.00
2022-12-14T07:10:19.048Z,23.65
2022-12-14T07:12:47.191Z,24.60
2022-12-14T07:15:15.285Z,26.63
2022-12-14T07:17:43.115Z,26.13
2022-12-14T07:20:11.249Z,25.40
2022-12-14T07:22:41.787Z,25.42
2022-12-14T07:25:09.830Z,24.17
2022-12-14T07:27:37.886Z,28.60
2022-12-14T07:30:06.212Z,33.13
2022-12-14T07:32:34.260Z,30.33
2022-12-14T07:35:09.447Z,25.58
2022-12-14T07:37:41.128Z,26.55
2022-12-14T07:40:09.550Z,25.67
2022-12-14T07:42:43.273Z,27.70
2022-12-14T07:45:15.059Z,25.15
2022-12-14T07:47:43.167Z,26.02
2022-12-14T07:50:11.337Z,29.30
2022-12-14T07:52:39.307Z,26.45
2022-12-14T07:55:09.587Z,28.30
2022-12-14T07:57:37.551Z,24.95
2022-12-14T08:00:08.158Z,27.83
2022-12-14T08:02:41.651Z,27.23
2022-12-14T08:05:12.610Z,29.77
2022-12-14T08:07:41.045Z,28.27
2022-12-14T08:10:11.425Z,26.23
2022-12-14T08:12:41.540Z,32.40
2022-12-14T08:15:09.966Z,28.45
2022-12-14T08:17:39.844Z,29.48
2022-12-14T08:20:08.152Z,30.23
2022-12-14T08:22:36.080Z,29.02
2022-12-14T08:25:04.163Z,28.30
2022-12-14T08:27:35.301Z,28.02
2022-12-14T08:30:05.962Z,26.33
2022-12-14T08:32:34.564Z,36.23
2022-12-14T08:35:02.794Z,28.50
2022-12-14T08:37:32.942Z,31.15
2022-12-14T08:40:03.557Z,29.83
2022-12-14T08:42:33.584Z,26.40
2022-12-14T08:45:01.560Z,30.35
2022-12-14T08:47:29.904Z,29.35
2022-12-14T08:49:59.032Z,26.63
2022-12-14T08:52:27.874Z,27.67
2022-12-14T08:54:55.862Z,26.58
2022-12-14T08:57:23.737Z,25.85
2022-12-14T09:00:01.144Z,30.02
2022-12-14T09:02:30.189Z,28.38
2022-12-14T09:05:01.298Z,27.98
2022-12-14T09:07:32.320Z,29.90
2022-12-14T09:10:00.396Z,35.67
2022-12-14T09:12:28.665Z,40.53
2022-12-14T09:14:56.204Z,34.13
2022-12-14T09:17:23.745Z,23.55
2022-12-14T09:19:51.300Z,24.90
2022-12-14T09:22:19.168Z,27.95
2022-12-14T09:24:46.748Z,27.17
2022-12-14T09:27:14.270Z,27.75
2022-12-14T09:29:41.877Z,27.92
2022-12-14T09:32:09.464Z,29.20
2022-12-14T09:34:36.996Z,27.55
2022-12-14T09:37:07.263Z,28.23
2022-12-14T09:39:35.912Z,23.30
2022-12-14T09:42:22.354Z,26.17
2022-12-14T09:45:04.049Z,25.38
2022-12-14T09:47:41.460Z,28.73
2022-12-14T09:50:15.287Z,33.40
2022-12-14T09:52:47.991Z,24.20
2022-12-14T09:55:32.289Z,32.47
2022-12-14T09:58:07.321Z,29.27
2022-12-14T10:00:48.121Z,26.30
2022-12-14T10:03:27.315Z,27.27
2022-12-14T10:06:15.784Z,28.52
2022-12-14T10:08:52.697Z,28.92
2022-12-14T10:11:37.439Z,29.33
2022-12-14T10:14:04.979Z,29.38
2022-12-14T10:16:35.595Z,29.05
2022-12-14T10:19:16.705Z,26.35
2022-12-14T10:22:01.351Z,28.23
2022-12-14T10:24:35.229Z,28.30
2022-12-14T10:27:03.817Z,28.92
2022-12-14T10:29:57.681Z,28.55
2022-12-14T10:32:34.795Z,31.35
2022-12-14T10:35:16.272Z,27.02
2022-12-14T10:37:50.593Z,25.08
2022-12-14T10:40:31.147Z,28.02
2022-12-14T10:43:03.918Z,30.08
2022-12-14T10:45:41.781Z,26.65
2022-12-14T10:48:30.574Z,25.17
2022-12-14T10:51:03.517Z,27.92
2022-12-14T10:53:40.968Z,25.73
2022-12-14T10:56:13.760Z,29.23
2022-12-14T10:58:41.380Z,25.65
2022-12-14T11:01:12.863Z,26.63
2022-12-14T11:03:40.917Z,27.48
2022-12-14T11:06:14.594Z,28.90
2022-12-14T11:08:48.228Z,33.05
2022-12-14T11:11:19.148Z,28.25
2022-12-14T11:13:54.514Z,28.38
2022-12-14T11:16:33.579Z,26.50
2022-12-14T11:19:04.675Z,27.13
2022-12-14T11:21:37.760Z,28.17
2022-12-14T11:24:06.193Z,28.52
2022-12-14T11:26:41.726Z,33.05
2022-12-14T11:29:17.789Z,29.17
2022-12-14T11:31:52.535Z,30.25
2022-12-14T11:34:22.426Z,27.83
2022-12-14T11:36:50.957Z,27.45
2022-12-14T11:39:18.770Z,24.27
2022-12-14T11:41:50.628Z,28.92
2022-12-14T11:44:23.304Z,28.17
2022-12-14T11:47:00.292Z,28.02
2022-12-14T11:49:44.132Z,25.90
2022-12-14T11:52:12.062Z,25.63
2022-12-14T11:54:40.750Z,24.60
2022-12-14T11:57:10.446Z,26.17
2022-12-14T11:59:39.837Z,24.08
2022-12-14T12:02:22.841Z,23.92
2022-12-14T12:04:53.678Z,28.83
2022-12-14T12:07:32.307Z,27.07
2022-12-14T12:10:21.370Z,28.55
2022-12-14T12:12:54.194Z,25.48
2022-12-14T12:15:35.511Z,26.90
2022-12-14T12:18:22.527Z,31.35
2022-12-14T12:21:16.604Z,31.23
2022-12-14T12:23:44.743Z,28.98
2022-12-14T12:26:15.054Z,26.85
2022-12-14T12:28:46.042Z,24.27
2022-12-14T12:31:17.530Z,31.10
2022-12-14T12:33:50.186Z,29.95
2022-12-14T12:36:23.798Z,27.10
2022-12-14T12:38:54.956Z,29.20
2022-12-14T12:41:25.445Z,25.90
2022-12-14T12:43:55.529Z,29.88
2022-12-14T12:46:26.841Z,25.80
2022-12-14T12:48:58.529Z,27.52
2022-12-14T12:51:28.050Z,24.63
2022-12-14T12:53:59.521Z,26.63
2022-12-14T12:56:38.367Z,24.75
2022-12-14T12:59:06.545Z,33.22
2022-12-14T13:01:39.643Z,28.25
2022-12-14T13:04:10.309Z,25.63
2022-12-14T13:06:44.328Z,28.25
2022-12-14T13:09:20.799Z,28.10
2022-12-14T13:11:48.433Z,28.83
2022-12-14T13:14:34.447Z,28.20
2022-12-14T13:17:04.575Z,31.80
2022-12-14T13:19:50.253Z,33.08
2022-12-14T13:22:23.091Z,32.55
2022-12-14T13:24:56.995Z,33.45
2022-12-14T13:27:34.948Z,33.45
2022-12-14T13:30:19.115Z,31.33
2022-12-14T13:32:51.617Z,33.20
2022-12-14T13:35:42.716Z,31.17
2022-12-14T13:38:23.507Z,30.23
2022-12-14T13:41:06.152Z,27.13
2022-12-14T13:43:52.687Z,27.75
2022-12-14T13:46:25.021Z,28.30
2022-12-14T13:48:54.183Z,26.40
2022-12-14T13:51:39.761Z,26.00
2022-12-14T13:54:18.868Z,25.35
2022-12-14T13:56:46.437Z,27.55
2022-12-14T13:59:25.314Z,27.60
2022-12-14T14:01:55.207Z,26.00
2022-12-14T14:04:24.889Z,24.65
2022-12-14T14:06:53.664Z,25.63
2022-12-14T14:09:24.599Z,28.02
2022-12-14T14:12:02.777Z,25.33
2022-12-14T14:14:39.417Z,27.95
2022-12-14T14:17:27.298Z,27.42
2022-12-14T14:19:56.073Z,26.02
2022-12-14T14:22:25.791Z,28.40
2022-12-14T14:24:58.664Z,27.40
2022-12-14T14:27:28.603Z,30.38
2022-12-14T14:29:56.377Z,29.60
2022-12-14T14:32:26.972Z,32.08
2022-12-14T14:34:54.766Z,29.83
2022-12-14T14:37:22.765Z,35.83
2022-12-14T14:40:21.687Z,27.52
2022-12-14T14:42:58.190Z,38.45
2022-12-14T14:45:34.441Z,56.17
2022-12-14T14:48:03.489Z,51.10
2022-12-14T14:50:35.457Z,56.17
2022-12-14T14:53:14.353Z,36.10
2022-12-14T14:55:53.977Z,30.20
2022-12-14T14:58:25.498Z,33.72
2022-12-14T15:00:59.344Z,31.67
2022-12-14T15:03:41.959Z,30.95
2022-12-14T15:06:17.148Z,30.75
2022-12-14T15:08:47.193Z,31.30
2022-12-14T15:11:23.496Z,30.88
2022-12-14T15:13:51.037Z,34.75
2022-12-14T15:16:23.030Z,31.90
2022-12-14T15:18:50.668Z,31.50
2022-12-14T15:21:19.043Z,40.97
2022-12-14T15:23:50.041Z,32.95
2022-12-14T15:26:23.583Z,37.85
2022-12-14T15:28:52.597Z,32.25
2022-12-14T15:31:27.664Z,33.10
2022-12-14T15:33:55.565Z,41.03
2022-12-14T15:36:25.700Z,34.03
2022-12-14T15:38:54.550Z,34.55
2022-12-14T15:41:23.462Z,39.03
2022-12-14T15:43:56.492Z,32.88
2022-12-14T15:46:30.044Z,32.92
2022-12-14T15:49:01.646Z,38.45
2022-12-14T15:51:32.037Z,35.88
2022-12-14T15:54:00.577Z,34.58
2022-12-14T15:56:29.980Z,31.63
2022-12-14T15:59:01.546Z,33.90
2022-12-14T16:01:35.720Z,44.15
2022-12-14T16:04:08.306Z,39.28
2022-12-14T16:06:41.119Z,40.60
2022-12-14T16:09:11.720Z,38.92
2022-12-14T16:11:41.754Z,40.03
2022-12-14T16:14:26.112Z,42.05
2022-12-14T16:16:54.075Z,40.00
2022-12-14T16:19:28.167Z,36.58
2022-12-14T16:22:23.100Z,38.33
2022-12-14T16:24:59.829Z,35.13
2022-12-14T16:27:27.951Z,38.28
2022-12-14T16:30:16.961Z,41.25
2022-12-14T16:32:49.780Z,41.63
2022-12-14T16:35:22.948Z,40.72
2022-12-14T16:37:51.912Z,37.47
2022-12-14T16:40:45.720Z,38.53
2022-12-14T16:43:28.354Z,39.78
2022-12-14T16:45:56.274Z,38.30
2022-12-14T16:48:24.615Z,36.40
2022-12-14T16:50:58.095Z,36.72
2022-12-14T16:53:29.666Z,36.00
2022-12-14T16:56:08.003Z,36.85
2022-12-14T16:58:36.696Z,40.38
2022-12-14T17:01:06.048Z,37.67
2022-12-14T17:03:34.606Z,37.33
2022-12-14T17:06:03.984Z,38.70
2022-12-14T17:08:33.493Z,42.58
2022-12-14T17:11:02.169Z,35.78
2022-12-14T17:13:30.226Z,34.72
2022-12-14T17:16:02.671Z,33.97
2022-12-14T17:18:40.772Z,39.45
2022-12-14T17:21:09.364Z,35.35
2022-12-14T17:23:41.117Z,33.38
2022-12-14T17:28:36.082Z,34.45
2022-12-14T17:31:03.882Z,33.65
2022-12-14T17:33:32.184Z,33.70
2022-12-14T17:36:00.072Z,34.63
2022-12-14T17:38:27.690Z,32.70
2022-12-14T17:40:56.008Z,33.80
2022-12-14T17:43:25.402Z,32.75
2022-12-14T17:45:53.007Z,33.67
2022-12-14T17:48:21.016Z,32.70
2022-12-14T17:50:50.410Z,33.38
2022-12-14T17:53:20.718Z,35.47
2022-12-14T17:55:48.366Z,33.00
2022-12-14T17:58:16.665Z,35.03
2022-12-14T18:01:03.112Z,33.55
2022-12-14T18:03:37.639Z,37.00
2022-12-14T18:06:05.605Z,38.30
2022-12-14T18:08:33.224Z,36.47
2022-12-14T18:11:02.198Z,32.30
2022-12-14T18:13:34.302Z,33.40
2022-12-14T18:16:02.133Z,32.20
2022-12-14T18:18:29.857Z,34.72
2022-12-14T18:20:58.741Z,32.42
2022-12-14T18:23:26.306Z,34.03
2022-12-14T18:25:54.899Z,34.22
2022-12-14T18:28:22.452Z,37.13
2022-12-14T18:30:55.294Z,34.83
2022-12-14T18:33:24.624Z,36.65
2022-12-14T18:35:52.996Z,34.03
2022-12-14T18:38:20.628Z,35.58
2022-12-14T18:40:50.218Z,32.58
2022-12-14T18:43:21.256Z,38.35
2022-12-14T18:45:48.857Z,38.42
2022-12-14T18:48:16.423Z,39.35
2022-12-14T18:50:43.939Z,36.08
2022-12-14T18:53:15.706Z,33.28
2022-12-14T18:58:15.489Z,31.15
2022-12-14T19:00:43.336Z,34.25
2022-12-14T19:03:11.029Z,33.15
2022-12-14T19:05:38.641Z,29.02
2022-12-14T19:08:07.461Z,28.70
2022-12-14T19:10:35.126Z,30.55
2022-12-14T19:13:02.697Z,26.13
2022-12-14T19:15:31.930Z,25.83
2022-12-14T19:17:59.892Z,27.33
2022-12-14T19:20:28.304Z,28.33
2022-12-14T19:22:56.337Z,29.80
2022-12-14T19:25:24.546Z,26.23
2022-12-14T19:30:40.452Z,27.65
2022-12-14T19:33:08.030Z,26.63
2022-12-14T19:35:35.554Z,27.48
2022-12-14T19:38:03.121Z,27.95
2022-12-14T19:40:30.740Z,30.73
2022-12-14T19:42:59.127Z,24.20
2022-12-14T19:45:26.652Z,25.23
2022-12-14T19:47:54.176Z,23.95
2022-12-14T19:50:21.719Z,28.92
2022-12-14T19:52:52.291Z,26.52
2022-12-14T19:55:19.855Z,28.95
2022-12-14T19:57:47.376Z,23.80
2022-12-14T20:00:14.984Z,24.73
2022-12-14T20:02:42.699Z,24.08
2022-12-14T20:05:10.494Z,20.90
2022-12-14T20:07:43.576Z,38.65
2022-12-14T20:10:11.536Z,30.45
2022-12-14T20:12:39.132Z,23.25
2022-12-14T20:15:06.829Z,22.58
2022-12-14T20:17:34.484Z,23.75
2022-12-14T20:20:02.056Z,23.15
2022-12-14T20:22:29.591Z,23.98
2022-12-14T20:24:57.149Z,24.05
2022-12-14T20:27:24.751Z,24.00
2022-12-14T20:29:52.316Z,22.33
2022-12-14T20:32:19.901Z,19.67
2022-12-14T20:34:47.417Z,21.70
2022-12-14T20:37:14.925Z,22.00
2022-12-14T20:39:42.470Z,21.38
2022-12-14T20:42:10.113Z,23.08
2022-12-14T20:44:37.831Z,21.73
2022-12-14T20:47:05.509Z,18.50
2022-12-14T20:49:33.158Z,19.42
2022-12-14T20:52:00.764Z,18.35
2022-12-14T20:54:29.246Z,20.30
2022-12-14T20:56:56.965Z,18.25
2022-12-14T20:59:25.026Z,19.42
2022-12-14T21:01:56.236Z,19.40
2022-12-14T21:06:52.535Z,19.90
2022-12-14T21:09:20.114Z,21.00
2022-12-14T21:12:07.607Z,18.92
2022-12-14T21:14:36.398Z,21.17
2022-12-14T21:17:04.446Z,20.33
2022-12-14T21:19:32.431Z,21.02
2022-12-14T21:22:00.039Z,20.05
2022-12-14T21:27:20.148Z,19.90
2022-12-14T21:29:48.122Z,20.00
2022-12-14T21:32:16.749Z,19.98
2022-12-14T21:34:44.560Z,19.65
2022-12-14T21:37:12.392Z,16.85
2022-12-14T21:39:39.930Z,17.42
2022-12-14T21:42:10.246Z,17.55
2022-12-14T21:44:38.224Z,19.05
2022-12-14T21:47:07.033Z,17.88
2022-12-14T21:49:36.347Z,20.05
2022-12-14T21:52:07.333Z,19.20
2022-12-14T21:54:35.322Z,19.77
2022-12-14T21:57:21.447Z,18.33
2022-12-14T21:59:49.029Z,22.90
2022-12-14T22:02:21.413Z,21.17
2022-12-14T22:04:49.143Z,21.27
2022-12-14T22:07:17.871Z,19.42
2022-12-14T22:09:49.650Z,20.23
2022-12-14T22:12:18.442Z,21.45
2022-12-14T22:14:45.977Z,20.48
2022-12-14T22:17:14.629Z,20.80
2022-12-14T22:19:42.407Z,23.00
2022-12-14T22:22:16.925Z,22.83
2022-12-14T22:24:45.066Z,19.42
2022-12-14T22:27:13.220Z,19.20
2022-12-14T22:29:40.730Z,19.77
2022-12-14T22:32:08.669Z,20.63
2022-12-14T22:34:36.713Z,21.20
2022-12-14T22:37:04.217Z,21.42
2022-12-14T22:39:31.714Z,20.48
2022-12-14T22:41:59.655Z,20.25
2022-12-14T22:44:27.273Z,19.95
2022-12-14T22:46:54.851Z,21.55
2022-12-14T22:49:22.384Z,22.85
2022-12-14T22:51:50.398Z,23.40
2022-12-14T22:54:19.241Z,23.95
2022-12-14T22:56:47.909Z,22.05
2022-12-14T22:59:22.540Z,22.95
2022-12-14T23:01:50.707Z,23.27
2022-12-14T23:04:18.409Z,25.20
2022-12-14T23:06:46.153Z,22.75
2022-12-14T23:09:32.716Z,21.80
2022-12-14T23:12:21.861Z,20.73
2022-12-14T23:15:08.628Z,22.23
2022-12-14T23:17:55.211Z,24.50
2022-12-14T23:20:41.528Z,22.17
2022-12-14T23:23:27.911Z,20.77
2022-12-14T23:26:14.614Z,20.40
2022-12-14T23:29:00.927Z,20.77
2022-12-14T23:31:47.013Z,21.35
2022-12-14T23:34:33.140Z,19.88
2022-12-14T23:37:20.625Z,20.77
2022-12-14T23:40:07.549Z,21.85
2022-12-14T23:42:54.055Z,23.80
2022-12-14T23:45:40.246Z,27.45
2022-12-14T23:48:26.469Z,30.65
2022-12-14T23:51:12.523Z,30.25
2022-12-14T23:53:58.849Z,32.08
2022-12-14T23:56:45.023Z,28.80
2022-12-14T23:59:32.671Z,28.58
